createdAt,value
2023-01-31T00:00:04.354Z,1.92
2023-01-31T00:02:31.434Z,2.83
2023-01-31T00:04:57.788Z,2.45
2023-01-31T00:07:24.133Z,1.50
2023-01-31T00:09:50.435Z,2.65
2023-01-31T00:12:16.732Z,2.17
2023-01-31T00:14:42.991Z,2.53
2023-01-31T00:17:09.306Z,2.00
2023-01-31T00:19:36.110Z,1.70
2023-01-31T00:22:02.401Z,2.33
2023-01-31T00:24:28.768Z,1.20
2023-01-31T00:26:56.820Z,1.50
2023-01-31T00:29:25.750Z,1.90
2023-01-31T00:31:52.368Z,2.05
2023-01-31T00:34:18.810Z,1.98
2023-01-31T00:36:45.143Z,2.05
2023-01-31T00:39:11.506Z,2.25
2023-01-31T00:41:38.609Z,2.03
2023-01-31T00:44:05.538Z,1.90
2023-01-31T00:46:31.962Z,1.42
2023-01-31T00:48:58.399Z,2.15
2023-01-31T00:51:26.785Z,3.17
2023-01-31T00:53:53.605Z,2.58
2023-01-31T00:56:22.738Z,2.25
2023-01-31T00:58:49.706Z,1.77
2023-01-31T01:01:17.175Z,3.13
2023-01-31T01:03:45.258Z,2.22
2023-01-31T01:06:13.025Z,2.05
2023-01-31T01:08:42.196Z,1.77
2023-01-31T01:11:10.259Z,1.55
2023-01-31T01:13:37.243Z,1.30
2023-01-31T01:16:14.183Z,1.77
2023-01-31T01:18:40.591Z,2.60
2023-01-31T01:21:10.909Z,1.90
2023-01-31T01:23:38.062Z,2.95
2023-01-31T01:26:05.254Z,1.45
2023-01-31T01:28:35.150Z,1.17
2023-01-31T01:31:08.134Z,1.83
2023-01-31T01:33:34.959Z,1.08
2023-01-31T01:36:01.969Z,1.15
2023-01-31T01:38:29.074Z,2.03
2023-01-31T01:40:55.816Z,1.52
2023-01-31T01:43:22.119Z,1.48
2023-01-31T01:45:48.946Z,1.95
2023-01-31T01:48:17.537Z,2.33
2023-01-31T01:50:48.621Z,2.15
2023-01-31T01:53:20.267Z,2.10
2023-01-31T01:55:51.938Z,2.90
2023-01-31T01:58:31.429Z,1.85
2023-01-31T02:00:57.927Z,2.35
2023-01-31T02:03:24.238Z,1.90
2023-01-31T02:05:55.796Z,1.98
2023-01-31T02:08:23.526Z,1.85
2023-01-31T02:10:52.246Z,2.17
2023-01-31T02:13:19.215Z,3.60
2023-01-31T02:15:45.875Z,2.47
2023-01-31T02:18:12.841Z,3.50
2023-01-31T02:20:45.303Z,2.78
2023-01-31T02:23:20.843Z,2.47
2023-01-31T02:28:31.523Z,2.67
2023-01-31T02:31:18.168Z,1.60
2023-01-31T02:34:04.940Z,2.13
2023-01-31T02:36:56.524Z,2.65
2023-01-31T02:39:31.078Z,1.88
2023-01-31T02:42:04.246Z,2.40
2023-01-31T02:44:50.143Z,1.73
2023-01-31T02:47:29.061Z,2.10
2023-01-31T02:50:16.052Z,2.22
2023-01-31T02:52:53.040Z,1.65
2023-01-31T02:55:37.935Z,1.65
2023-01-31T02:58:06.503Z,1.58
2023-01-31T03:00:34.387Z,2.40
2023-01-31T03:03:01.392Z,1.90
2023-01-31T03:05:29.643Z,1.58
2023-01-31T03:07:57.544Z,1.63
2023-01-31T03:10:27.652Z,1.58
2023-01-31T03:13:02.281Z,1.65
2023-01-31T03:15:57.934Z,1.67
2023-01-31T03:18:28.540Z,2.63
2023-01-31T03:21:04.640Z,1.48
2023-01-31T03:23:31.945Z,1.80
2023-01-31T03:25:59.223Z,1.63
2023-01-31T03:28:28.919Z,2.30
2023-01-31T03:31:10.966Z,1.50
2023-01-31T03:33:39.022Z,1.70
2023-01-31T03:36:24.059Z,1.58
2023-01-31T03:39:13.925Z,2.22
2023-01-31T03:41:46.447Z,1.77
2023-01-31T03:44:20.705Z,1.58
2023-01-31T03:46:49.855Z,2.33
2023-01-31T03:49:17.783Z,2.55
2023-01-31T03:51:48.250Z,1.85
2023-01-31T03:54:20.028Z,1.90
2023-01-31T03:56:48.775Z,2.78
2023-01-31T03:59:17.171Z,2.15
2023-01-31T04:01:45.992Z,2.10
2023-01-31T04:04:18.683Z,2.30
2023-01-31T04:06:45.160Z,2.90
2023-01-31T04:09:11.628Z,2.10
2023-01-31T04:11:39.199Z,2.88
2023-01-31T04:14:05.499Z,2.22
2023-01-31T04:16:32.188Z,2.28
2023-01-31T04:18:58.540Z,2.63
2023-01-31T04:21:24.815Z,2.83
2023-01-31T04:23:51.263Z,2.40
2023-01-31T04:26:17.666Z,2.72
2023-01-31T04:28:44.024Z,2.75
2023-01-31T04:31:10.858Z,2.10
2023-01-31T04:33:37.204Z,1.80
2023-01-31T04:36:03.694Z,2.03
2023-01-31T04:38:29.942Z,2.47
2023-01-31T04:40:56.194Z,3.78
2023-01-31T04:43:22.548Z,2.38
2023-01-31T04:45:49.136Z,2.83
2023-01-31T04:48:15.427Z,2.35
2023-01-31T04:50:41.713Z,2.40
2023-01-31T04:53:08.757Z,2.65
2023-01-31T04:55:35.411Z,2.40
2023-01-31T04:58:01.642Z,2.45
2023-01-31T05:00:27.934Z,2.35
2023-01-31T05:02:54.372Z,2.60
2023-01-31T05:05:21.177Z,2.63
2023-01-31T05:07:47.835Z,2.50
2023-01-31T05:10:14.179Z,2.47
2023-01-31T05:12:40.436Z,3.35
2023-01-31T05:15:07.647Z,3.08
2023-01-31T05:17:34.216Z,2.28
2023-01-31T05:20:00.460Z,2.15
2023-01-31T05:22:26.791Z,2.20
2023-01-31T05:24:53.083Z,2.03
2023-01-31T05:27:19.948Z,2.15
2023-01-31T05:29:46.411Z,2.80
2023-01-31T05:32:13.383Z,2.42
2023-01-31T05:34:40.064Z,3.60
2023-01-31T05:37:07.141Z,2.83
2023-01-31T05:39:33.717Z,2.63
2023-01-31T05:41:59.981Z,2.90
2023-01-31T05:44:26.357Z,2.70
2023-01-31T05:46:52.697Z,2.28
2023-01-31T05:49:18.981Z,2.38
2023-01-31T05:51:45.301Z,2.08
2023-01-31T05:54:11.753Z,2.35
2023-01-31T05:56:39.084Z,2.72
2023-01-31T05:59:05.477Z,2.75
2023-01-31T06:01:32.181Z,3.08
2023-01-31T06:03:58.499Z,2.58
2023-01-31T06:06:24.756Z,2.83
2023-01-31T06:08:51.038Z,2.75
2023-01-31T06:11:18.464Z,3.67
2023-01-31T06:13:44.869Z,3.65
2023-01-31T06:16:11.321Z,3.17
2023-01-31T06:18:37.907Z,3.22
2023-01-31T06:21:04.629Z,3.05
2023-01-31T06:23:30.873Z,2.97
2023-01-31T06:25:57.408Z,3.15
2023-01-31T06:28:23.727Z,3.35
2023-01-31T06:30:50.840Z,2.85
2023-01-31T06:33:17.206Z,2.55
2023-01-31T06:35:43.501Z,3.30
2023-01-31T06:38:12.329Z,3.35
2023-01-31T06:40:38.805Z,2.88
2023-01-31T06:43:05.123Z,2.95
2023-01-31T06:45:31.939Z,3.45
2023-01-31T06:47:58.268Z,2.33
2023-01-31T06:50:24.793Z,2.72
2023-01-31T06:52:51.116Z,2.55
2023-01-31T06:55:17.659Z,2.90
2023-01-31T06:57:48.138Z,3.13
2023-01-31T07:00:14.957Z,2.90
2023-01-31T07:02:41.249Z,2.80
2023-01-31T07:05:07.919Z,2.50
2023-01-31T07:07:34.215Z,3.20
2023-01-31T07:10:00.607Z,3.13
2023-01-31T07:12:27.122Z,2.17
2023-01-31T07:14:53.457Z,2.20
2023-01-31T07:17:21.135Z,3.35
2023-01-31T07:19:47.528Z,2.55
2023-01-31T07:22:13.840Z,3.58
2023-01-31T07:24:40.240Z,2.15
2023-01-31T07:27:06.628Z,3.15
2023-01-31T07:29:33.508Z,3.25
2023-01-31T07:32:00.047Z,3.33
2023-01-31T07:34:26.355Z,3.85
2023-01-31T07:36:52.682Z,2.58
2023-01-31T07:39:19.053Z,2.95
2023-01-31T07:41:45.351Z,3.03
2023-01-31T07:44:13.271Z,4.15
2023-01-31T07:46:40.060Z,4.13
2023-01-31T07:49:06.373Z,4.22
2023-01-31T07:51:33.303Z,3.75
2023-01-31T07:53:59.681Z,4.70
2023-01-31T07:56:25.972Z,4.90
2023-01-31T07:58:52.328Z,4.15
2023-01-31T08:01:39.052Z,4.57
2023-01-31T08:04:19.934Z,5.28
2023-01-31T08:06:48.307Z,5.22
2023-01-31T08:09:14.981Z,5.28
2023-01-31T08:11:41.575Z,6.07
2023-01-31T08:14:09.486Z,4.65
2023-01-31T08:16:36.635Z,4.40
2023-01-31T08:19:03.449Z,4.22
2023-01-31T08:21:29.780Z,4.95
2023-01-31T08:23:56.053Z,4.63
2023-01-31T08:26:22.930Z,4.97
2023-01-31T08:28:50.032Z,5.75
2023-01-31T08:31:20.968Z,4.82
2023-01-31T08:33:47.808Z,4.97
2023-01-31T08:36:18.683Z,5.78
2023-01-31T08:38:45.188Z,4.18
2023-01-31T08:41:12.216Z,5.25
2023-01-31T08:43:53.799Z,5.82
2023-01-31T08:46:23.071Z,4.97
2023-01-31T08:48:49.473Z,4.40
2023-01-31T08:51:15.810Z,5.28
2023-01-31T08:53:46.122Z,4.78
2023-01-31T08:56:13.033Z,4.30
2023-01-31T08:58:41.786Z,5.63
2023-01-31T09:01:09.427Z,4.57
2023-01-31T09:03:36.208Z,4.25
2023-01-31T09:06:04.882Z,4.13
2023-01-31T09:08:31.418Z,5.97
2023-01-31T09:11:00.241Z,4.45
2023-01-31T09:13:27.255Z,5.05
2023-01-31T09:16:03.825Z,5.13
2023-01-31T09:18:30.434Z,5.03
2023-01-31T09:20:56.768Z,4.45
2023-01-31T09:23:23.334Z,4.65
2023-01-31T09:25:55.816Z,3.78
2023-01-31T09:28:22.740Z,5.32
2023-01-31T09:30:49.336Z,5.45
2023-01-31T09:33:15.991Z,4.40
2023-01-31T09:35:42.479Z,4.85
2023-01-31T09:38:08.736Z,5.22
2023-01-31T09:40:38.484Z,3.60
2023-01-31T09:43:05.774Z,4.05
2023-01-31T09:45:33.844Z,4.05
2023-01-31T09:48:01.341Z,5.20
2023-01-31T09:50:33.522Z,5.07
2023-01-31T09:53:00.119Z,4.45
2023-01-31T09:55:36.478Z,5.13
2023-01-31T09:58:09.073Z,5.20
2023-01-31T10:00:46.564Z,5.85
2023-01-31T10:03:24.911Z,4.63
2023-01-31T10:06:08.684Z,5.30
2023-01-31T10:08:34.926Z,4.97
2023-01-31T10:11:02.687Z,6.10
2023-01-31T10:13:36.888Z,4.88
2023-01-31T10:16:09.884Z,5.10
2023-01-31T10:18:38.676Z,5.40
2023-01-31T10:21:14.792Z,6.22
2023-01-31T10:23:53.943Z,6.53
2023-01-31T10:26:22.524Z,6.22
2023-01-31T10:28:57.968Z,6.05
2023-01-31T10:31:32.739Z,6.60
2023-01-31T10:34:03.576Z,7.80
2023-01-31T10:36:30.421Z,7.90
2023-01-31T10:39:19.475Z,7.20
2023-01-31T10:42:08.065Z,6.60
2023-01-31T10:44:53.262Z,7.82
2023-01-31T10:47:20.523Z,7.05
2023-01-31T10:49:47.766Z,7.38
2023-01-31T10:52:37.069Z,8.95
2023-01-31T10:55:18.115Z,7.43
2023-01-31T10:57:44.399Z,8.70
2023-01-31T11:00:16.436Z,7.55
2023-01-31T11:02:42.800Z,7.15
2023-01-31T11:05:16.500Z,7.18
2023-01-31T11:07:42.838Z,7.18
2023-01-31T11:10:23.862Z,7.20
2023-01-31T11:12:57.789Z,8.73
2023-01-31T11:15:26.228Z,6.10
2023-01-31T11:17:52.711Z,7.28
2023-01-31T11:20:24.883Z,7.45
2023-01-31T11:22:52.086Z,6.32
2023-01-31T11:25:20.577Z,6.82
2023-01-31T11:27:47.392Z,7.07
2023-01-31T11:30:22.939Z,5.95
2023-01-31T11:32:49.710Z,6.82
2023-01-31T11:35:15.990Z,5.28
2023-01-31T11:37:56.616Z,6.38
2023-01-31T11:40:41.199Z,5.80
2023-01-31T11:43:13.604Z,4.78
2023-01-31T11:45:43.182Z,6.03
2023-01-31T11:48:16.105Z,4.18
2023-01-31T11:51:01.411Z,5.40
2023-01-31T11:53:30.297Z,5.22
2023-01-31T11:55:59.968Z,4.82
2023-01-31T11:58:34.127Z,4.40
2023-01-31T12:01:08.270Z,4.13
2023-01-31T12:03:34.600Z,4.78
2023-01-31T12:06:02.234Z,4.18
2023-01-31T12:08:30.476Z,4.35
2023-01-31T12:10:57.234Z,3.17
2023-01-31T12:13:23.798Z,3.22
2023-01-31T12:15:58.462Z,3.13
2023-01-31T12:18:29.914Z,2.47
2023-01-31T12:21:15.848Z,2.78
2023-01-31T12:23:42.087Z,2.83
2023-01-31T12:26:13.524Z,2.40
2023-01-31T12:29:02.949Z,2.05
2023-01-31T12:31:29.216Z,1.70
2023-01-31T12:34:01.089Z,1.52
2023-01-31T12:36:37.202Z,2.00
2023-01-31T12:39:04.362Z,1.70
2023-01-31T12:41:41.275Z,2.25
2023-01-31T12:44:16.044Z,1.60
2023-01-31T12:47:08.528Z,1.30
2023-01-31T12:49:55.591Z,1.20
2023-01-31T12:52:40.623Z,1.63
2023-01-31T12:55:07.112Z,1.40
2023-01-31T12:57:50.028Z,1.55
2023-01-31T13:00:25.343Z,0.98
2023-01-31T13:02:51.720Z,1.02
2023-01-31T13:05:28.755Z,1.00
2023-01-31T13:07:58.106Z,1.48
2023-01-31T13:10:33.264Z,1.05
2023-01-31T13:13:00.037Z,1.38
2023-01-31T13:15:28.675Z,1.30
2023-01-31T13:17:57.108Z,1.33
2023-01-31T13:20:29.355Z,0.85
2023-01-31T13:22:57.852Z,1.25
2023-01-31T13:25:37.662Z,1.77
2023-01-31T13:28:09.799Z,1.23
2023-01-31T13:30:39.344Z,2.45
2023-01-31T13:33:17.334Z,2.00
2023-01-31T13:35:44.822Z,1.45
2023-01-31T13:38:17.669Z,2.25
2023-01-31T13:40:54.764Z,1.58
2023-01-31T13:43:21.300Z,1.63
2023-01-31T13:45:57.447Z,1.70
2023-01-31T13:48:42.270Z,2.40
2023-01-31T13:51:16.052Z,1.90
2023-01-31T13:53:47.340Z,1.75
2023-01-31T13:56:17.800Z,2.50
2023-01-31T13:58:44.485Z,2.30
2023-01-31T14:01:17.751Z,2.58
2023-01-31T14:04:02.840Z,2.40
2023-01-31T14:06:54.368Z,2.92
2023-01-31T14:09:33.946Z,2.92
2023-01-31T14:12:20.496Z,2.67
2023-01-31T14:14:46.769Z,2.83
2023-01-31T14:17:21.960Z,3.53
2023-01-31T14:19:49.223Z,2.53
2023-01-31T14:22:15.494Z,1.88
2023-01-31T14:24:53.089Z,2.92
2023-01-31T14:27:23.691Z,1.92
2023-01-31T14:29:57.519Z,2.70
2023-01-31T14:32:34.414Z,2.35
2023-01-31T14:35:08.815Z,2.67
2023-01-31T14:37:50.329Z,2.60
2023-01-31T14:40:30.591Z,3.00
2023-01-31T14:42:56.866Z,2.85
2023-01-31T14:45:35.734Z,3.33
2023-01-31T14:48:13.606Z,2.72
2023-01-31T14:50:54.882Z,2.55
2023-01-31T14:53:31.055Z,3.40
2023-01-31T14:56:08.900Z,2.40
2023-01-31T14:58:36.752Z,2.60
2023-01-31T15:01:05.293Z,5.03
2023-01-31T15:03:34.845Z,4.03
2023-01-31T15:06:07.446Z,2.78
2023-01-31T15:08:41.588Z,3.42
2023-01-31T15:11:41.372Z,3.08
2023-01-31T15:14:33.735Z,4.03
2023-01-31T15:17:02.803Z,3.15
2023-01-31T15:19:31.937Z,3.28
2023-01-31T15:22:00.403Z,2.75
2023-01-31T15:24:31.541Z,2.88
2023-01-31T15:26:59.095Z,4.35
2023-01-31T15:29:27.387Z,3.83
2023-01-31T15:31:55.331Z,3.17
2023-01-31T15:34:25.442Z,2.78
2023-01-31T15:36:57.609Z,3.35
2023-01-31T15:39:27.058Z,3.85
2023-01-31T15:41:53.381Z,3.58
2023-01-31T15:44:21.173Z,3.28
2023-01-31T15:46:48.558Z,4.15
2023-01-31T15:49:39.089Z,2.97
2023-01-31T15:52:20.165Z,4.32
2023-01-31T15:54:59.489Z,4.45
2023-01-31T15:57:35.981Z,3.53
2023-01-31T16:00:02.659Z,3.72
2023-01-31T16:02:34.298Z,3.90
2023-01-31T16:05:00.762Z,4.05
2023-01-31T16:07:29.216Z,4.45
2023-01-31T16:09:56.986Z,3.03
2023-01-31T16:12:23.631Z,4.20
2023-01-31T16:14:51.067Z,3.65
2023-01-31T16:17:18.786Z,2.50
2023-01-31T16:19:48.999Z,1.73
2023-01-31T16:22:24.318Z,2.08
2023-01-31T16:24:54.340Z,1.63
2023-01-31T16:27:20.812Z,1.70
2023-01-31T16:29:49.268Z,1.80
2023-01-31T16:32:26.133Z,1.80
2023-01-31T16:34:54.028Z,1.83
2023-01-31T16:37:29.229Z,1.60
2023-01-31T16:39:59.273Z,1.20
2023-01-31T16:42:27.629Z,2.20
2023-01-31T16:44:53.939Z,1.83
2023-01-31T16:47:47.425Z,1.05
2023-01-31T16:50:22.591Z,1.15
2023-01-31T16:52:52.379Z,2.55
2023-01-31T16:55:20.241Z,2.38
2023-01-31T16:57:47.279Z,2.95
2023-01-31T17:00:25.778Z,3.92
2023-01-31T17:02:52.977Z,2.50
2023-01-31T17:05:24.411Z,2.42
2023-01-31T17:07:51.041Z,3.40
2023-01-31T17:10:27.086Z,3.10
2023-01-31T17:12:57.271Z,3.30
2023-01-31T17:15:23.798Z,3.00
2023-01-31T17:17:50.204Z,3.17
2023-01-31T17:20:17.757Z,2.70
2023-01-31T17:22:50.395Z,4.60
2023-01-31T17:25:24.534Z,3.95
2023-01-31T17:27:51.137Z,4.20
2023-01-31T17:30:18.909Z,3.83
2023-01-31T17:32:45.349Z,4.15
2023-01-31T17:35:17.978Z,3.95
2023-01-31T17:37:44.482Z,3.75
2023-01-31T17:40:10.933Z,4.15
2023-01-31T17:42:37.231Z,5.47
2023-01-31T17:45:03.839Z,3.63
2023-01-31T17:47:30.133Z,3.95
2023-01-31T17:49:57.288Z,4.18
2023-01-31T17:52:24.098Z,3.28
2023-01-31T17:54:50.427Z,4.57
2023-01-31T17:57:16.709Z,3.85
2023-01-31T17:59:42.954Z,4.82
2023-01-31T18:02:09.554Z,4.65
2023-01-31T18:04:35.870Z,4.75
2023-01-31T18:07:02.191Z,4.45
2023-01-31T18:09:28.505Z,5.13
2023-01-31T18:11:54.800Z,4.57
2023-01-31T18:14:21.218Z,4.78
2023-01-31T18:16:49.310Z,4.75
2023-01-31T18:19:15.644Z,3.90
2023-01-31T18:21:53.515Z,5.65
2023-01-31T18:24:20.973Z,4.30
2023-01-31T18:26:48.363Z,5.35
2023-01-31T18:29:19.428Z,5.00
2023-01-31T18:31:46.108Z,4.20
2023-01-31T18:34:12.565Z,4.18
2023-01-31T18:36:39.512Z,5.80
2023-01-31T18:39:05.813Z,4.68
2023-01-31T18:41:33.229Z,5.53
2023-01-31T18:44:00.354Z,5.32
2023-01-31T18:46:28.012Z,4.85
2023-01-31T18:48:54.428Z,5.85
2023-01-31T18:51:20.713Z,4.80
2023-01-31T18:53:47.088Z,4.47
2023-01-31T18:56:14.835Z,5.72
2023-01-31T18:58:41.600Z,5.30
2023-01-31T19:01:13.034Z,5.07
2023-01-31T19:03:40.042Z,3.97
2023-01-31T19:06:07.638Z,4.68
2023-01-31T19:08:34.264Z,5.40
2023-01-31T19:11:07.464Z,6.75
2023-01-31T19:13:34.026Z,6.00
2023-01-31T19:16:01.018Z,4.97
2023-01-31T19:18:27.407Z,4.85
2023-01-31T19:20:53.707Z,4.45
2023-01-31T19:23:20.017Z,5.25
2023-01-31T19:25:46.393Z,4.80
2023-01-31T19:28:12.658Z,5.28
2023-01-31T19:30:39.285Z,5.10
2023-01-31T19:33:06.195Z,4.95
2023-01-31T19:35:32.615Z,4.05
2023-01-31T19:37:59.566Z,4.13
2023-01-31T19:40:26.034Z,4.15
2023-01-31T19:42:52.350Z,4.53
2023-01-31T19:45:22.830Z,5.80
2023-01-31T19:47:49.464Z,4.30
2023-01-31T19:50:15.898Z,4.65
2023-01-31T19:52:42.201Z,5.05
2023-01-31T19:55:08.765Z,5.20
2023-01-31T19:57:35.144Z,5.63
2023-01-31T20:00:01.499Z,5.38
2023-01-31T20:02:27.917Z,3.80
2023-01-31T20:04:57.665Z,3.65
2023-01-31T20:07:24.127Z,4.30
2023-01-31T20:09:50.517Z,4.75
2023-01-31T20:12:16.837Z,4.15
2023-01-31T20:14:43.134Z,5.22
2023-01-31T20:17:09.428Z,4.50
2023-01-31T20:19:35.723Z,4.78
2023-01-31T20:22:02.045Z,4.50
2023-01-31T20:24:28.409Z,5.35
2023-01-31T20:26:54.749Z,3.15
2023-01-31T20:29:21.120Z,4.75
2023-01-31T20:31:48.579Z,5.40
2023-01-31T20:34:14.887Z,5.78
2023-01-31T20:36:41.175Z,4.40
2023-01-31T20:39:07.571Z,3.92
2023-01-31T20:41:33.930Z,4.43
2023-01-31T20:44:00.237Z,4.18
2023-01-31T20:46:26.691Z,5.43
2023-01-31T20:48:53.097Z,4.85
2023-01-31T20:51:19.467Z,6.10
2023-01-31T20:53:45.800Z,6.18
2023-01-31T20:56:12.625Z,5.00
2023-01-31T20:58:39.861Z,4.45
2023-01-31T21:01:07.055Z,5.30
2023-01-31T21:03:34.108Z,4.07
2023-01-31T21:06:00.925Z,5.50
2023-01-31T21:08:27.709Z,5.47
2023-01-31T21:10:55.153Z,4.78
2023-01-31T21:13:22.854Z,4.13
2023-01-31T21:15:53.181Z,5.15
2023-01-31T21:18:20.194Z,5.55
2023-01-31T21:20:47.018Z,4.22
2023-01-31T21:23:13.533Z,5.63
2023-01-31T21:25:39.930Z,3.72
2023-01-31T21:28:06.259Z,5.07
2023-01-31T21:30:32.613Z,4.70
2023-01-31T21:32:58.973Z,4.47
2023-01-31T21:35:26.380Z,5.03
2023-01-31T21:37:52.879Z,5.47
2023-01-31T21:40:19.713Z,5.65
2023-01-31T21:42:49.060Z,4.22
2023-01-31T21:45:15.565Z,3.83
2023-01-31T21:48:00.438Z,3.80
2023-01-31T21:50:26.767Z,4.30
2023-01-31T21:52:53.150Z,4.45
2023-01-31T21:55:19.467Z,3.22
2023-01-31T21:57:45.975Z,4.85
2023-01-31T22:00:12.821Z,5.35
2023-01-31T22:02:39.209Z,3.63
2023-01-31T22:05:05.583Z,4.68
2023-01-31T22:07:32.859Z,4.65
2023-01-31T22:09:59.294Z,3.85
2023-01-31T22:12:25.581Z,3.67
2023-01-31T22:14:51.917Z,4.32
2023-01-31T22:17:19.249Z,4.38
2023-01-31T22:19:45.574Z,3.67
2023-01-31T22:22:12.043Z,5.22
2023-01-31T22:24:38.347Z,4.43
2023-01-31T22:27:04.657Z,4.53
2023-01-31T22:29:30.918Z,3.55
2023-01-31T22:31:57.277Z,4.68
2023-01-31T22:34:23.573Z,4.05
2023-01-31T22:36:49.884Z,3.97
2023-01-31T22:39:16.844Z,3.92
2023-01-31T22:41:44.575Z,4.45
2023-01-31T22:44:11.013Z,4.10
2023-01-31T22:46:37.493Z,4.25
2023-01-31T22:49:03.805Z,4.00
2023-01-31T22:51:30.171Z,4.10
2023-01-31T22:53:57.601Z,4.00
2023-01-31T22:56:29.290Z,4.07
2023-01-31T22:58:56.543Z,4.40
2023-01-31T23:01:24.126Z,4.18
2023-01-31T23:03:50.557Z,3.65
2023-01-31T23:06:17.389Z,3.40
2023-01-31T23:08:44.178Z,3.63
2023-01-31T23:11:11.997Z,3.33
2023-01-31T23:13:38.598Z,4.05
2023-01-31T23:16:05.827Z,4.70
2023-01-31T23:18:32.408Z,3.33
2023-01-31T23:21:06.116Z,4.20
2023-01-31T23:23:32.563Z,4.72
2023-01-31T23:25:58.840Z,3.60
2023-01-31T23:28:25.133Z,4.55
2023-01-31T23:30:51.447Z,4.90
2023-01-31T23:33:17.930Z,3.10
2023-01-31T23:35:44.295Z,4.13
2023-01-31T23:38:10.611Z,4.15
2023-01-31T23:40:36.986Z,3.90
2023-01-31T23:43:03.331Z,3.83
2023-01-31T23:45:29.652Z,3.60
2023-01-31T23:47:56.046Z,3.00
2023-01-31T23:50:22.992Z,3.67
2023-01-31T23:52:49.547Z,4.00
2023-01-31T23:55:18.095Z,2.67
2023-01-31T23:57:45.027Z,3.35
